Webcam Flughafen St.Gallen-Altenrhein

Live-Bilder und Zeitraffer LSZR / ACH.

 

Live aus Altenrhein
LIVE
LSZR 072020Z AUTO 21003KT CAVOK 20/16 Q1020
Zeitraffer heute
2020-08-07 00:14:49
LSZR 062150Z AUTO 21003KT CAVOK 18/16 Q1020